Race Coverage Navigation

TS # 33 / Jefferson City, MO  2019

 


TS STATS
TS Distance 56.74 
Total Distance 1950.06 
Miles To Go 1120.22 
TS Climbing 1901 
Total Climbing
TS  Elevation
TS  Net Elevation 3023 
Map Filename Open Map 
Directions Filename  
Latitude 38.56 
Longitude -92.19 
Google Map  TimeStation Map 


TS Arrival Data
Arr Ord  #/Name Arrival DT TS Dst Avg This TS Avg Overall Ascending
 1 608 - Elin Starup  06/20/2019 0:11 56.74  9.43  9.74 
 2 161 - Seana Hogan  06/19/2019 16:33 56.74  11.16  10.13 
 3 424 - Team i RON man Veterans supporting Veterans  06/19/2019 14:01 56.74  12.47  10.29 
 4 618 - GREGORY ROBINSON  06/19/2019 10:29 56.74  15.83  10.47 
 5 399 - Valerio Zamboni  06/19/2019 10:26 56.74  8.51  10.49 
 6 529 - Isa Pulver  06/19/2019 8:07 56.74  1.77  10.6 
 7 610 - Kabir Rachure  06/19/2019 3:51 56.74  8.01  10.86 
 8 568 - Alexandra Meixner  06/19/2019 0:03 56.74  8.2  11.08 
 9 604 - Chieko Ozawa  06/18/2019 23:26 56.74  11.05  11.12 
 10 510 - John C. Tarlton  06/18/2019 21:58 56.74  8.26  11.24 
 11 411 - Geoff Brunner  06/18/2019 21:25 56.74  12.33  11.28 
 12 442 - Joe Barr  06/18/2019 20:28 56.74  14.67  11.34 
 13 559 - Team Martin RAAM 2019 (Martin Bergmeister)  06/18/2019 19:13 56.74  12.33  11.42 
 14 611 - Marcelo Soares " MIXIRICA "  06/18/2019 18:16 56.74  9.98  11.47 
 15 603 - Alan Bradley  06/18/2019 16:31 56.74  8.2  11.6 
 16 615 - Philipp Amhof  06/18/2019 14:12 56.74  8.26  11.75 
 17 622 - Thomas Odom-Team Kyle Pease Foundation  06/18/2019 7:33 56.74  6.7  12.24 
 18 416 - Leah Goldstein  06/18/2019 6:36 56.74  7.67  12.3 
 19 623 - Ultra Paka Racing Team (Daniel Polman)  06/18/2019 6:21 56.74  11.99  12.33 
 20 367 - Daniela Genovesi  06/18/2019 5:57 56.74  8.07  12.36 
 21 612 - Markus K. Brandl  06/18/2019 0:50 56.74  13.95  12.78 
 22 329 - Peter Oyler  06/18/2019 0:49 56.74  11.99  12.81 
 23 617 - SOLO.kiwi (Craig Harper)  06/17/2019 22:01 56.74  11.16  13.02 
 24 T210 - Bike Wine Team  06/21/2019 11:13 56.74  15.83  13.92 
 25 609 - Jakob Olsen  06/17/2019 12:19 56.74  9.56  13.93 
 26 T205 - Prevent Breast Cancer powered by Endomag  06/21/2019 10:56 56.74  17.02  13.94 
 27 T207 - Team Life Time  06/21/2019 7:31 56.74  14.67  14.3 
 28 279 - Marko Baloh  06/17/2019 8:54 56.74  17.11  14.31 
 29 288 - Dave Haase  06/17/2019 7:41 56.74  9.2  14.44 
 30 T203 - JPsDuo  06/21/2019 5:35 56.74  13.04  14.49 
 31 T409 - Serpentine Golden Girls  06/21/2019 1:33 56.74  15.13  14.97 
 32 T200 - AIR RELAX GoPro TEAM BRASIL  06/20/2019 15:21 56.74  20.26  16.2 
 33 T417 - Team4RAAM 2019 powered by TGW Living Logistics  06/20/2019 15:29 56.74  19.13  16.25 
 34 T801 - Mind Over Matter  06/20/2019 14:16 56.74  15  16.42 
 35 T402 - EA/WFP RAAM Team  06/20/2019 12:37 56.74  18.4  16.61 
 36 377 - Christoph Strasser  06/16/2019 13:56 56.74  18.6  16.63 
 37 T806 - Team SuperMarrow  06/20/2019 12:43 56.74  20.76  16.65 
 38 T413 - TEAM BRASIL - SKIPPER  06/20/2019 11:31 56.74  21.55  16.79 
 39 T204 - Lucan CRC  06/20/2019 11:13 56.74  15.98  16.79 
 40 T206 - Project Linear Acceleration  06/20/2019 10:27 56.74  19.02  16.91 
 41 T403 - EKJ Denmark  06/20/2019 10:20 56.74  19.79  16.94 
 42 T415 - TEAM FIRE VELO 935  06/20/2019 9:32 56.74  15.91  17.09 
 43 T410 - Soap-Aid  06/20/2019 8:08 56.74  7.53  17.29 
 44 T202 - Integra Medical - BAA Racing  06/20/2019 7:34 56.74  16.61  17.33 
 45 T803 - Team EndoPark  06/20/2019 7:28 56.74  15.83  17.42 
 46 T405 - High Rollers  06/20/2019 7:09 56.74  16.85  17.43 
 47 T414 - Brazil Nuts  06/20/2019 5:35 56.74  20.26  17.7 
 48 T412 - Team Aspect  06/20/2019 0:39 56.74  14.93  18.52 
 49 T418 - The Opportunists  06/20/2019 0:14 56.74  21.41  18.61 
 50 T406 - Operation Walk Midwest  06/19/2019 23:09 56.74  17.92  18.77 
 51 T808 - Antonia's Friends 2019  06/19/2019 22:08 56.74  19.45  19.02 
 52 T400 - Cantastic4  06/19/2019 21:08 56.74  20.03  19.12 
 53 T408 - Radeln-fuer-Kinder (Cycling-for-Kids)  06/19/2019 19:40 56.74  22.55  19.43 
 54 T804 - Team FSHD Skyland Trail  06/19/2019 19:20 56.74  21.41  19.54 
 55 T416 - Team Rotary Raams Polio  06/19/2019 18:50 56.74  21.01  19.62 
 56 T802 - Scorchers  06/19/2019 17:17 56.74  24.32  19.95 
 57 T201 - EAT WELL  06/19/2019 15:47 56.74  22.25  20.15 
 58 T407 - Julian Becker   06/19/2019 15:47 56.74  23.48  20.21 
 59 T807 - Team ZOE International  06/19/2019 15:56 56.74  23.81  20.24 
 60 T805 - Team Oceanside  06/19/2019 15:03 56.74  21.96  20.42 
 61 T401 - Data Techniques powered by Networks Centre  06/19/2019 10:17 56.74  24.49  21.41 
 62 T404 - Gentlemen of speed  06/19/2019 9:34 56.74  22.4  21.59 
 63 T800 - Backstedt Racing Project 14  06/19/2019 5:52 56.74  16.45  22.57 
 64 T411 - team alpha - tischlerei groemmer  06/19/2019 4:42 56.74  23.48  22.85